createdAt,value
2018-08-12T00:00:15.332Z,68.13
2018-08-12T00:01:15.353Z,67.27
2018-08-12T00:03:08.279Z,68.04
2018-08-12T00:04:08.279Z,68.33
2018-08-12T00:06:01.193Z,68.33
2018-08-12T00:07:01.219Z,67.94
2018-08-12T00:08:54.144Z,68.04
2018-08-12T00:09:54.141Z,68.33
2018-08-12T00:11:47.048Z,68.04
2018-08-12T00:12:47.069Z,68.23
2018-08-12T00:14:39.992Z,68.33
2018-08-12T00:15:40.064Z,67.85
2018-08-12T00:17:32.924Z,67.37
2018-08-12T00:18:32.923Z,67.37
2018-08-12T00:20:25.828Z,67.66
2018-08-12T00:21:25.848Z,67.66
2018-08-12T00:23:18.780Z,67.72
2018-08-12T00:24:18.773Z,67.91
2018-08-12T00:26:11.682Z,68.39
2018-08-12T00:27:11.701Z,68.29
2018-08-12T00:29:05.617Z,68.10
2018-08-12T00:30:05.619Z,68.20
2018-08-12T00:31:58.526Z,68.29
2018-08-12T00:32:58.546Z,68.39
2018-08-12T00:34:51.473Z,68.10
2018-08-12T00:35:51.473Z,68.68
2018-08-12T00:37:44.401Z,69.15
2018-08-12T00:38:44.401Z,69.54
2018-08-12T00:40:37.305Z,69.54
2018-08-12T00:41:37.325Z,69.64
2018-08-12T00:43:30.253Z,69.92
2018-08-12T00:44:30.250Z,70.07
2018-08-12T00:46:23.158Z,70.75
2018-08-12T00:47:23.178Z,71.22
2018-08-12T00:49:16.103Z,71.42
2018-08-12T00:50:16.107Z,71.13
2018-08-12T00:52:09.008Z,71.22
2018-08-12T00:53:09.027Z,71.22
2018-08-12T00:55:01.980Z,71.13
2018-08-12T00:56:01.961Z,71.22
2018-08-12T00:57:54.897Z,71.70
2018-08-12T00:58:54.889Z,71.03
2018-08-12T01:00:47.793Z,71.61
2018-08-12T01:01:47.817Z,71.61
2018-08-12T01:03:40.743Z,71.03
2018-08-12T01:04:40.741Z,70.94
2018-08-12T01:06:33.642Z,71.32
2018-08-12T01:07:33.661Z,70.84
2018-08-12T01:09:26.599Z,71.51
2018-08-12T01:10:26.600Z,71.42
2018-08-12T01:12:19.503Z,71.13
2018-08-12T01:13:19.521Z,71.42
2018-08-12T01:15:12.446Z,71.89
2018-08-12T01:16:12.449Z,71.70
2018-08-12T01:18:05.376Z,71.80
2018-08-12T01:19:05.372Z,71.70
2018-08-12T01:20:58.283Z,71.42
2018-08-12T01:21:58.302Z,71.03
2018-08-12T01:23:51.224Z,71.42
2018-08-12T01:24:51.224Z,71.51
2018-08-12T01:26:44.131Z,71.13
2018-08-12T01:27:44.150Z,71.32
2018-08-12T01:29:37.078Z,71.51
2018-08-12T01:30:37.076Z,71.13
2018-08-12T01:32:29.982Z,71.51
2018-08-12T01:33:30.001Z,71.42
2018-08-12T01:35:22.927Z,71.51
2018-08-12T01:36:22.985Z,71.61
2018-08-12T01:38:15.853Z,71.76
2018-08-12T01:39:15.848Z,72.05
2018-08-12T01:41:08.757Z,72.81
2018-08-12T01:42:08.775Z,73.10
2018-08-12T01:44:01.703Z,73.10
2018-08-12T01:45:01.707Z,73.00
2018-08-12T01:46:54.602Z,73.67
2018-08-12T01:47:54.622Z,73.48
2018-08-12T01:49:47.549Z,74.15
2018-08-12T01:50:47.548Z,74.15
2018-08-12T01:52:40.456Z,73.96
2018-08-12T01:53:40.475Z,74.15
2018-08-12T01:55:33.401Z,74.15
2018-08-12T01:56:33.397Z,74.05
2018-08-12T01:58:26.322Z,74.44
2018-08-12T01:59:26.320Z,74.91
2018-08-12T02:01:19.230Z,74.34
2018-08-12T02:02:19.244Z,74.44
2018-08-12T02:04:12.171Z,74.82
2018-08-12T02:05:12.166Z,75.07
2018-08-12T02:07:05.073Z,74.88
2018-08-12T02:08:05.094Z,74.98
2018-08-12T02:09:58.031Z,75.83
2018-08-12T02:10:58.021Z,75.54
2018-08-12T02:12:50.927Z,74.63
2018-08-12T02:13:50.942Z,74.69
2018-08-12T02:15:43.866Z,75.07
2018-08-12T02:16:43.866Z,74.11
2018-08-12T02:18:36.794Z,74.21
2018-08-12T02:19:36.793Z,74.30
2018-08-12T02:21:29.693Z,74.69
2018-08-12T02:22:29.713Z,75.26
2018-08-12T02:24:22.635Z,75.64
2018-08-12T02:25:22.634Z,75.26
2018-08-12T02:27:15.539Z,75.45
2018-08-12T02:28:15.557Z,75.93
2018-08-12T02:30:08.484Z,75.93
2018-08-12T02:31:08.486Z,75.70
2018-08-12T02:33:01.395Z,76.65
2018-08-12T02:34:01.399Z,76.75
2018-08-12T02:35:54.328Z,77.03
2018-08-12T02:36:54.323Z,77.03
2018-08-12T02:38:48.235Z,77.70
2018-08-12T02:39:48.235Z,78.37
2018-08-12T02:41:41.140Z,78.62
2018-08-12T02:42:41.159Z,78.47
2018-08-12T02:44:34.082Z,78.66
2018-08-12T02:45:34.079Z,78.56
2018-08-12T02:47:26.982Z,78.28
2018-08-12T02:48:27.002Z,78.18
2018-08-12T02:50:19.927Z,77.51
2018-08-12T02:51:19.927Z,77.42
2018-08-12T02:53:12.838Z,77.03
2018-08-12T02:54:12.844Z,77.03
2018-08-12T02:56:05.868Z,76.75
2018-08-12T02:57:05.767Z,77.23
2018-08-12T02:58:58.691Z,76.94
2018-08-12T02:59:58.691Z,77.03
2018-08-12T03:01:51.599Z,77.13
2018-08-12T03:02:51.618Z,77.23
2018-08-12T03:04:44.541Z,76.08
2018-08-12T03:05:44.540Z,76.56
2018-08-12T03:07:37.447Z,76.37
2018-08-12T03:08:37.466Z,75.79
2018-08-12T03:10:30.386Z,76.18
2018-08-12T03:11:30.395Z,76.37
2018-08-12T03:13:23.289Z,76.37
2018-08-12T03:14:23.307Z,76.46
2018-08-12T03:16:16.234Z,76.65
2018-08-12T03:17:16.230Z,75.98
2018-08-12T03:19:09.159Z,76.46
2018-08-12T03:20:09.152Z,76.37
2018-08-12T03:22:02.052Z,76.56
2018-08-12T03:23:02.077Z,76.46
2018-08-12T03:24:54.996Z,75.98
2018-08-12T03:25:54.994Z,75.70
2018-08-12T03:27:47.897Z,76.27
2018-08-12T03:28:47.914Z,75.70
2018-08-12T03:30:40.881Z,76.27
2018-08-12T03:31:40.836Z,76.65
2018-08-12T03:33:33.737Z,76.81
2018-08-12T03:34:33.757Z,76.94
2018-08-12T03:36:26.683Z,76.94
2018-08-12T03:37:26.681Z,77.13
2018-08-12T03:39:19.607Z,76.23
2018-08-12T03:40:19.602Z,76.46
2018-08-12T03:42:12.506Z,75.98
2018-08-12T03:43:12.523Z,76.08
2018-08-12T03:45:05.447Z,75.95
2018-08-12T03:46:05.445Z,76.23
2018-08-12T03:47:58.353Z,77.00
2018-08-12T03:48:58.399Z,76.71
2018-08-12T03:50:51.294Z,77.09
2018-08-12T03:51:51.291Z,76.71
2018-08-12T03:53:44.189Z,76.81
2018-08-12T03:54:44.208Z,76.81
2018-08-12T03:56:37.134Z,76.81
2018-08-12T03:57:37.130Z,77.00
2018-08-12T03:59:30.054Z,76.90
2018-08-12T04:00:30.050Z,76.62
2018-08-12T04:02:22.971Z,76.81
2018-08-12T04:03:22.976Z,76.71
2018-08-12T04:05:15.893Z,76.81
2018-08-12T04:06:15.889Z,77.00
2018-08-12T04:08:08.796Z,76.81
2018-08-12T04:09:08.817Z,76.81
2018-08-12T04:11:01.738Z,77.28
2018-08-12T04:12:01.734Z,77.23
2018-08-12T04:13:54.638Z,76.75
2018-08-12T04:14:54.653Z,76.94
2018-08-12T04:16:47.582Z,76.56
2018-08-12T04:17:47.583Z,76.27
2018-08-12T04:19:40.502Z,76.37
2018-08-12T04:20:40.498Z,76.56
2018-08-12T04:22:33.399Z,75.98
2018-08-12T04:23:33.417Z,75.98
2018-08-12T04:25:26.344Z,75.89
2018-08-12T04:26:26.340Z,76.27
2018-08-12T04:28:19.242Z,76.27
2018-08-12T04:29:19.261Z,76.27
2018-08-12T04:31:12.183Z,75.98
2018-08-12T04:32:12.182Z,76.08
2018-08-12T04:34:05.084Z,76.46
2018-08-12T04:35:05.102Z,76.18
2018-08-12T04:36:58.027Z,76.08
2018-08-12T04:37:58.022Z,76.37
2018-08-12T04:39:50.946Z,75.89
2018-08-12T04:40:50.941Z,75.42
2018-08-12T04:42:43.856Z,74.88
2018-08-12T04:43:43.864Z,74.78
2018-08-12T04:45:36.785Z,74.88
2018-08-12T04:46:36.785Z,74.78
2018-08-12T04:48:29.688Z,75.07
2018-08-12T04:49:29.707Z,75.07
2018-08-12T04:51:22.632Z,74.98
2018-08-12T04:52:22.633Z,74.88
2018-08-12T04:54:15.538Z,75.26
2018-08-12T04:55:15.554Z,75.26
2018-08-12T04:57:08.477Z,74.78
2018-08-12T04:58:08.475Z,74.59
2018-08-12T05:00:01.400Z,74.05
2018-08-12T05:01:01.399Z,73.86
2018-08-12T05:02:54.305Z,73.86
2018-08-12T05:03:54.323Z,74.05
2018-08-12T05:05:47.253Z,73.77
2018-08-12T05:06:47.256Z,73.67
2018-08-12T05:08:40.160Z,73.39
2018-08-12T05:09:40.181Z,73.58
2018-08-12T05:11:33.098Z,73.67
2018-08-12T05:12:33.099Z,73.19
2018-08-12T05:14:25.999Z,73.77
2018-08-12T05:15:26.019Z,73.67
2018-08-12T05:17:18.946Z,73.39
2018-08-12T05:18:18.940Z,73.39
2018-08-12T05:20:11.878Z,73.77
2018-08-12T05:21:11.866Z,73.48
2018-08-12T05:23:04.778Z,73.48
2018-08-12T05:24:04.793Z,73.67
2018-08-12T05:25:57.714Z,73.58
2018-08-12T05:26:57.715Z,73.77
2018-08-12T05:28:50.622Z,73.19
2018-08-12T05:29:50.641Z,73.19
2018-08-12T05:31:43.566Z,73.29
2018-08-12T05:32:43.563Z,72.66
2018-08-12T05:34:36.469Z,72.85
2018-08-12T05:35:36.491Z,72.94
2018-08-12T05:37:30.414Z,72.94
2018-08-12T05:38:30.410Z,73.00
2018-08-12T05:40:23.337Z,72.81
2018-08-12T05:41:23.334Z,73.14
2018-08-12T05:43:16.257Z,72.91
2018-08-12T05:44:16.260Z,73.10
2018-08-12T05:46:09.182Z,73.71
2018-08-12T05:47:09.183Z,73.23
2018-08-12T05:49:02.113Z,73.04
2018-08-12T05:50:02.108Z,72.56
2018-08-12T05:51:55.046Z,72.28
2018-08-12T05:52:55.033Z,71.99
2018-08-12T05:54:47.939Z,71.83
2018-08-12T05:55:47.956Z,71.45
2018-08-12T05:57:40.884Z,71.45
2018-08-12T05:58:40.885Z,70.97
2018-08-12T06:00:33.796Z,70.81
2018-08-12T06:01:33.814Z,70.24
2018-08-12T06:03:26.758Z,69.00
2018-08-12T06:04:26.739Z,68.90
2018-08-12T06:06:19.673Z,69.38
2018-08-12T06:07:19.671Z,68.80
2018-08-12T06:09:12.583Z,68.71
2018-08-12T06:10:12.602Z,68.55
2018-08-12T06:12:05.534Z,67.60
2018-08-12T06:13:05.535Z,67.60
2018-08-12T06:14:58.442Z,66.42
2018-08-12T06:15:58.476Z,65.49
2018-08-12T06:17:51.394Z,63.42
2018-08-12T06:18:51.399Z,62.36
2018-08-12T06:20:44.530Z,60.57
2018-08-12T06:21:44.553Z,60.31
2018-08-12T06:23:37.485Z,59.28
2018-08-12T06:24:37.489Z,58.70
2018-08-12T06:26:30.420Z,57.87
2018-08-12T06:27:30.423Z,56.81
2018-08-12T06:29:23.339Z,55.04
2018-08-12T06:30:23.366Z,54.85
2018-08-12T06:32:16.297Z,53.69
2018-08-12T06:33:16.300Z,53.43
2018-08-12T06:35:09.216Z,52.87
2018-08-12T06:36:09.240Z,52.30
2018-08-12T06:38:02.176Z,50.59
2018-08-12T06:39:02.185Z,50.88
2018-08-12T06:40:55.097Z,49.63
2018-08-12T06:41:55.126Z,49.73
2018-08-12T06:43:48.089Z,50.37
2018-08-12T06:44:48.068Z,50.76
2018-08-12T06:46:41.014Z,49.41
2018-08-12T06:47:41.026Z,50.09
2018-08-12T06:49:33.943Z,50.78
2018-08-12T06:50:33.965Z,49.53
2018-08-12T06:52:26.913Z,49.15
2018-08-12T06:53:26.913Z,49.46
2018-08-12T06:55:20.022Z,48.40
2018-08-12T06:56:20.048Z,48.13
2018-08-12T06:58:13.016Z,49.10
2018-08-12T06:59:13.004Z,48.13
2018-08-12T07:01:05.929Z,47.19
2018-08-12T07:02:05.955Z,46.81
2018-08-12T07:03:58.904Z,46.83
2018-08-12T07:04:58.906Z,46.06
2018-08-12T07:06:51.979Z,45.40
2018-08-12T07:07:51.988Z,45.21
2018-08-12T07:09:44.908Z,45.11
2018-08-12T07:10:44.938Z,45.59
2018-08-12T07:12:37.884Z,45.62
2018-08-12T07:13:37.902Z,44.92
2018-08-12T07:15:30.815Z,44.34
2018-08-12T07:16:30.850Z,45.00
2018-08-12T07:18:23.783Z,44.90
2018-08-12T07:19:23.792Z,45.26
2018-08-12T07:21:17.705Z,45.36
2018-08-12T07:22:17.731Z,46.01
2018-08-12T07:24:10.666Z,46.88
2018-08-12T07:25:10.678Z,47.34
2018-08-12T07:27:03.615Z,48.76
2018-08-12T07:28:03.621Z,48.93
2018-08-12T07:29:56.536Z,49.51
2018-08-12T07:30:56.565Z,49.22
2018-08-12T07:32:49.546Z,49.63
2018-08-12T07:33:49.506Z,49.82
2018-08-12T07:35:42.420Z,49.37
2018-08-12T07:36:42.449Z,48.40
2018-08-12T07:38:35.427Z,48.49
2018-08-12T07:39:35.391Z,48.81
2018-08-12T07:41:28.305Z,48.23
2018-08-12T07:42:28.332Z,48.42
2018-08-12T07:44:21.274Z,47.45
2018-08-12T07:45:21.271Z,46.59
2018-08-12T07:47:14.204Z,46.90
2018-08-12T07:48:14.217Z,45.17
2018-08-12T07:50:07.126Z,46.13
2018-08-12T07:51:07.155Z,45.94
2018-08-12T07:53:00.091Z,45.86
2018-08-12T07:54:00.097Z,45.28
2018-08-12T07:55:53.122Z,44.32
2018-08-12T07:56:53.035Z,44.60
2018-08-12T07:58:45.989Z,43.85
2018-08-12T07:59:45.995Z,44.22
2018-08-12T08:01:40.077Z,44.05
2018-08-12T08:02:40.103Z,43.95
2018-08-12T08:04:33.038Z,43.57
2018-08-12T08:05:33.048Z,43.59
2018-08-12T08:07:25.980Z,42.82
2018-08-12T08:08:25.982Z,42.24
2018-08-12T08:10:18.899Z,42.43
2018-08-12T08:11:18.929Z,42.14
2018-08-12T08:13:12.359Z,42.25
2018-08-12T08:14:12.363Z,42.25
2018-08-12T08:16:05.285Z,40.90
2018-08-12T08:17:05.308Z,41.77
2018-08-12T08:18:58.240Z,41.70
2018-08-12T08:19:58.250Z,41.31
2018-08-12T08:21:51.165Z,41.31
2018-08-12T08:22:51.192Z,41.11
2018-08-12T08:24:44.143Z,41.79
2018-08-12T08:25:44.162Z,40.25
2018-08-12T08:27:37.102Z,40.15
2018-08-12T08:28:37.077Z,39.78
2018-08-12T08:30:30.010Z,40.36
2018-08-12T08:31:30.145Z,38.04
2018-08-12T08:33:23.112Z,38.13
2018-08-12T08:34:23.119Z,38.23
2018-08-12T08:36:16.036Z,37.17
2018-08-12T08:37:16.065Z,36.41
2018-08-12T08:39:09.000Z,35.05
2018-08-12T08:40:09.009Z,35.64
2018-08-12T08:42:01.927Z,35.54
2018-08-12T08:43:01.955Z,35.54
2018-08-12T08:44:54.893Z,35.25
2018-08-12T08:45:54.901Z,35.54
2018-08-12T08:47:47.836Z,34.59
2018-08-12T08:48:47.847Z,34.20
2018-08-12T08:50:40.780Z,34.20
2018-08-12T08:51:40.798Z,34.30
2018-08-12T08:53:33.734Z,34.30
2018-08-12T08:54:33.743Z,34.20
2018-08-12T08:56:26.659Z,33.62
2018-08-12T08:57:26.687Z,33.62
2018-08-12T08:59:19.627Z,33.54
2018-08-12T09:00:19.636Z,33.72
2018-08-12T09:02:12.557Z,32.76
2018-08-12T09:03:12.582Z,33.25
2018-08-12T09:05:05.522Z,32.65
2018-08-12T09:06:05.531Z,33.33
2018-08-12T09:07:58.745Z,34.49
2018-08-12T09:08:58.908Z,34.11
2018-08-12T09:10:51.596Z,34.11
2018-08-12T09:11:51.683Z,34.11
2018-08-12T09:13:44.568Z,34.59
2018-08-12T09:14:44.572Z,35.17
2018-08-12T09:16:37.500Z,34.51
2018-08-12T09:17:37.529Z,33.06
2018-08-12T09:19:30.465Z,33.06
2018-08-12T09:20:30.489Z,33.25
2018-08-12T09:22:23.624Z,32.96
2018-08-12T09:23:23.653Z,32.96
2018-08-12T09:25:16.594Z,32.29
2018-08-12T09:26:16.605Z,32.68
2018-08-12T09:28:09.538Z,32.18
2018-08-12T09:29:09.544Z,32.49
2018-08-12T09:31:02.466Z,33.26
2018-08-12T09:32:02.495Z,33.07
2018-08-12T09:33:55.743Z,32.97
2018-08-12T09:34:55.724Z,32.50
2018-08-12T09:36:49.804Z,32.31
2018-08-12T09:37:49.840Z,32.41
2018-08-12T09:39:42.936Z,32.60
2018-08-12T09:40:42.883Z,31.55
2018-08-12T09:42:35.863Z,32.31
2018-08-12T09:43:35.949Z,32.60
2018-08-12T09:45:28.822Z,32.42
2018-08-12T09:46:28.832Z,32.32
2018-08-12T09:48:22.155Z,32.52
2018-08-12T09:49:22.194Z,32.13
2018-08-12T09:51:15.182Z,31.47
2018-08-12T09:52:16.253Z,31.47
2018-08-12T09:54:08.118Z,31.26
2018-08-12T09:55:08.092Z,31.57
2018-08-12T09:57:02.860Z,32.13
2018-08-12T09:58:01.963Z,32.34
2018-08-12T09:59:54.045Z,31.66
2018-08-12T10:00:54.005Z,31.47
2018-08-12T10:02:46.924Z,31.57
2018-08-12T10:03:46.951Z,31.47
2018-08-12T10:05:39.893Z,32.24
2018-08-12T10:06:39.899Z,31.97
2018-08-12T10:08:32.839Z,32.17
2018-08-12T10:09:32.846Z,32.17
2018-08-12T10:11:25.980Z,31.68
2018-08-12T10:12:26.006Z,31.38
2018-08-12T10:14:18.974Z,32.17
2018-08-12T10:15:18.965Z,31.38
2018-08-12T10:17:11.908Z,32.35
2018-08-12T10:18:11.915Z,31.58
2018-08-12T10:20:04.853Z,32.65
2018-08-12T10:21:04.865Z,32.28
2018-08-12T10:22:57.951Z,32.08
2018-08-12T10:23:58.139Z,31.60
2018-08-12T10:25:50.795Z,31.30
2018-08-12T10:26:50.800Z,31.13
2018-08-12T10:28:43.766Z,30.43
2018-08-12T10:29:43.773Z,30.52
2018-08-12T10:31:36.705Z,31.11
2018-08-12T10:32:36.779Z,31.40
2018-08-12T10:34:29.671Z,31.60
2018-08-12T10:35:29.678Z,32.67
2018-08-12T10:37:22.602Z,32.20
2018-08-12T10:38:22.631Z,32.29
2018-08-12T10:40:15.567Z,32.97
2018-08-12T10:41:15.576Z,32.78
2018-08-12T10:43:08.501Z,32.76
2018-08-12T10:44:08.528Z,31.40
2018-08-12T10:46:01.492Z,32.28
2018-08-12T10:47:01.495Z,31.60
2018-08-12T10:48:56.819Z,32.28
2018-08-12T10:49:54.463Z,32.39
2018-08-12T10:51:47.371Z,32.86
2018-08-12T10:52:47.411Z,32.67
2018-08-12T10:54:40.340Z,31.60
2018-08-12T10:55:40.347Z,32.28
2018-08-12T10:57:33.659Z,32.28
2018-08-12T10:58:33.352Z,32.18
2018-08-12T11:00:26.310Z,31.60
2018-08-12T11:01:26.279Z,31.30
2018-08-12T11:03:19.201Z,32.65
2018-08-12T11:04:19.232Z,32.75
2018-08-12T11:06:12.171Z,33.62
2018-08-12T11:07:12.226Z,33.43
2018-08-12T11:09:05.135Z,33.34
2018-08-12T11:10:05.130Z,32.75
2018-08-12T11:11:58.061Z,32.67
2018-08-12T11:12:58.083Z,32.28
2018-08-12T11:14:51.031Z,33.14
2018-08-12T11:15:51.031Z,32.75
2018-08-12T11:17:43.953Z,32.84
2018-08-12T11:18:43.981Z,33.06
2018-08-12T11:20:36.980Z,33.15
2018-08-12T11:21:36.960Z,32.96
2018-08-12T11:23:30.058Z,32.39
2018-08-12T11:24:30.090Z,32.29
2018-08-12T11:26:23.211Z,32.87
2018-08-12T11:27:23.220Z,32.68
2018-08-12T11:29:16.167Z,32.70
2018-08-12T11:30:16.168Z,32.00
2018-08-12T11:32:09.095Z,32.68
2018-08-12T11:33:09.120Z,32.39
2018-08-12T11:35:02.068Z,32.49
2018-08-12T11:36:02.066Z,31.53
2018-08-12T11:37:54.992Z,32.50
2018-08-12T11:38:55.016Z,32.50
2018-08-12T11:40:47.957Z,31.53
2018-08-12T11:41:47.967Z,31.13
2018-08-12T11:43:40.898Z,32.39
2018-08-12T11:44:40.916Z,31.61
2018-08-12T11:46:33.870Z,31.92
2018-08-12T11:47:33.936Z,31.63
2018-08-12T11:49:26.817Z,31.73
2018-08-12T11:50:26.821Z,31.24
2018-08-12T11:52:19.750Z,32.02
2018-08-12T11:53:19.776Z,31.24
2018-08-12T11:55:12.864Z,31.53
2018-08-12T11:56:12.872Z,32.32
2018-08-12T11:58:05.795Z,31.64
2018-08-12T11:59:05.822Z,31.35
2018-08-12T12:00:58.972Z,30.39
2018-08-12T12:01:58.975Z,30.68
2018-08-12T12:03:51.897Z,29.69
2018-08-12T12:04:51.924Z,30.38
2018-08-12T12:06:45.380Z,30.38
2018-08-12T12:07:45.377Z,30.38
2018-08-12T12:09:38.344Z,29.71
2018-08-12T12:10:38.324Z,29.81
2018-08-12T12:12:31.249Z,29.81
2018-08-12T12:13:31.316Z,29.91
2018-08-12T12:15:24.227Z,28.83
2018-08-12T12:16:24.279Z,28.64
2018-08-12T12:18:17.152Z,29.91
2018-08-12T12:19:17.181Z,29.52
2018-08-12T12:21:10.233Z,29.81
2018-08-12T12:22:10.132Z,29.43
2018-08-12T12:24:03.091Z,29.24
2018-08-12T12:25:03.111Z,29.43
2018-08-12T12:26:59.174Z,28.94
2018-08-12T12:27:56.645Z,29.33
2018-08-12T12:29:49.611Z,29.24
2018-08-12T12:30:49.609Z,27.78
2018-08-12T12:32:42.540Z,28.75
2018-08-12T12:33:42.662Z,28.75
2018-08-12T12:35:35.667Z,28.07
2018-08-12T12:36:35.567Z,28.65
2018-08-12T12:38:28.498Z,29.14
2018-08-12T12:39:28.522Z,28.94
2018-08-12T12:41:21.468Z,28.77
2018-08-12T12:42:21.476Z,28.57
2018-08-12T12:44:14.401Z,27.50
2018-08-12T12:45:14.493Z,27.79
2018-08-12T12:47:07.376Z,27.98
2018-08-12T12:48:07.387Z,27.69
2018-08-12T12:50:00.350Z,26.23
2018-08-12T12:51:00.338Z,26.91
2018-08-12T12:52:53.289Z,27.11
2018-08-12T12:53:53.290Z,27.69
2018-08-12T12:55:46.243Z,27.59
2018-08-12T12:56:46.244Z,27.58
2018-08-12T12:58:39.175Z,27.48
2018-08-12T12:59:39.264Z,28.64
2018-08-12T13:01:32.172Z,28.83
2018-08-12T13:02:32.181Z,28.83
2018-08-12T13:04:25.113Z,29.52
2018-08-12T13:05:25.147Z,28.83
2018-08-12T13:07:18.102Z,29.13
2018-08-12T13:08:18.094Z,29.71
2018-08-12T13:10:11.020Z,29.52
2018-08-12T13:11:11.074Z,29.32
2018-08-12T13:13:03.993Z,29.72
2018-08-12T13:14:04.000Z,29.24
2018-08-12T13:15:56.951Z,28.75
2018-08-12T13:16:56.956Z,28.38
2018-08-12T13:18:49.917Z,27.59
2018-08-12T13:19:49.910Z,27.50
2018-08-12T13:21:42.848Z,27.80
2018-08-12T13:22:42.857Z,27.61
2018-08-12T13:24:35.780Z,27.80
2018-08-12T13:25:35.807Z,27.31
2018-08-12T13:27:28.750Z,27.51
2018-08-12T13:28:28.760Z,27.81
2018-08-12T13:30:21.684Z,26.74
2018-08-12T13:31:21.714Z,26.43
2018-08-12T13:33:14.774Z,26.53
2018-08-12T13:34:14.668Z,27.70
2018-08-12T13:36:07.782Z,27.51
2018-08-12T13:37:07.789Z,27.80
2018-08-12T13:39:00.717Z,26.24
2018-08-12T13:40:00.743Z,27.02
2018-08-12T13:41:53.697Z,27.80
2018-08-12T13:42:53.700Z,27.61
2018-08-12T13:44:46.630Z,27.02
2018-08-12T13:45:46.657Z,26.82
2018-08-12T13:47:39.611Z,27.80
2018-08-12T13:48:39.614Z,26.63
2018-08-12T13:50:32.540Z,26.43
2018-08-12T13:51:32.570Z,25.75
2018-08-12T13:53:25.523Z,26.43
2018-08-12T13:54:25.525Z,26.34
2018-08-12T13:56:18.476Z,26.53
2018-08-12T13:57:18.482Z,26.63
2018-08-12T13:59:11.407Z,26.04
2018-08-12T14:00:11.437Z,26.24
2018-08-12T14:02:04.387Z,26.14
2018-08-12T14:03:04.390Z,25.56
2018-08-12T14:04:57.316Z,25.36
2018-08-12T14:05:57.349Z,25.36
2018-08-12T14:07:50.488Z,25.26
2018-08-12T14:08:50.495Z,25.46
2018-08-12T14:10:43.418Z,25.65
2018-08-12T14:11:43.449Z,25.36
2018-08-12T14:13:36.406Z,25.85
2018-08-12T14:14:36.409Z,26.24
2018-08-12T14:16:29.359Z,25.95
2018-08-12T14:17:29.364Z,25.37
2018-08-12T14:19:22.291Z,26.25
2018-08-12T14:20:22.321Z,25.96
2018-08-12T14:22:15.272Z,25.39
2018-08-12T14:23:15.275Z,25.20
2018-08-12T14:25:08.384Z,24.12
2018-08-12T14:26:08.412Z,23.44
2018-08-12T14:28:01.368Z,23.82
2018-08-12T14:29:01.369Z,24.11
2018-08-12T14:30:54.295Z,25.10
2018-08-12T14:31:54.325Z,24.80
2018-08-12T14:33:47.278Z,23.83
2018-08-12T14:34:47.285Z,23.24
2018-08-12T14:36:40.238Z,23.24
2018-08-12T14:37:40.331Z,23.05
2018-08-12T14:39:33.366Z,22.36
2018-08-12T14:40:34.489Z,23.34
2018-08-12T14:42:26.347Z,22.46
2018-08-12T14:43:26.386Z,22.66
2018-08-12T14:45:19.285Z,22.75
2018-08-12T14:46:19.316Z,22.75
2018-08-12T14:48:12.755Z,22.75
2018-08-12T14:49:12.763Z,22.85
2018-08-12T14:51:05.705Z,22.47
2018-08-12T14:52:05.724Z,22.86
2018-08-12T14:53:59.174Z,22.27
2018-08-12T14:54:59.188Z,22.56
2018-08-12T14:56:52.337Z,23.35
2018-08-12T14:57:52.475Z,22.38
2018-08-12T14:59:45.764Z,22.17
2018-08-12T15:00:45.795Z,22.27
2018-08-12T15:02:38.741Z,22.08
2018-08-12T15:03:38.748Z,22.66
2018-08-12T15:05:31.676Z,23.25
2018-08-12T15:06:31.708Z,22.86
2018-08-12T15:08:24.873Z,22.17
2018-08-12T15:09:24.896Z,21.69
2018-08-12T15:11:18.864Z,22.08
2018-08-12T15:12:18.348Z,21.59
2018-08-12T15:14:11.495Z,22.47
2018-08-12T15:15:11.548Z,21.78
2018-08-12T15:17:05.092Z,21.88
2018-08-12T15:18:05.097Z,21.49
2018-08-12T15:19:58.025Z,21.50
2018-08-12T15:20:58.866Z,21.39
2018-08-12T15:22:51.251Z,21.31
2018-08-12T15:23:51.189Z,21.21
2018-08-12T15:25:44.233Z,21.69
2018-08-12T15:26:44.264Z,21.78
2018-08-12T15:28:37.469Z,21.49
2018-08-12T15:29:37.397Z,22.08
2018-08-12T15:31:30.514Z,21.98
2018-08-12T15:32:30.564Z,21.98
2018-08-12T15:34:23.819Z,21.39
2018-08-12T15:35:23.766Z,21.49
2018-08-12T15:37:16.995Z,21.60
2018-08-12T15:38:16.806Z,21.60
2018-08-12T15:40:10.252Z,21.00
2018-08-12T15:41:09.923Z,21.60
2018-08-12T15:43:02.876Z,21.20
2018-08-12T15:44:02.932Z,22.08
2018-08-12T15:45:55.812Z,21.98
2018-08-12T15:46:55.882Z,22.08
2018-08-12T15:48:49.279Z,21.98
2018-08-12T15:49:49.328Z,21.39
2018-08-12T15:51:42.224Z,21.39
2018-08-12T15:52:42.259Z,21.48
2018-08-12T15:54:35.411Z,21.78
2018-08-12T15:55:35.484Z,21.78
2018-08-12T15:57:28.418Z,21.88
2018-08-12T15:58:28.379Z,21.97
2018-08-12T16:00:21.319Z,22.07
2018-08-12T16:01:21.336Z,22.27
2018-08-12T16:03:14.281Z,21.78
2018-08-12T16:04:14.290Z,22.27
2018-08-12T16:06:07.215Z,21.20
2018-08-12T16:07:07.244Z,21.39
2018-08-12T16:09:00.250Z,21.39
2018-08-12T16:10:00.201Z,21.59
2018-08-12T16:11:54.621Z,21.39
2018-08-12T16:12:54.651Z,21.59
2018-08-12T16:14:47.824Z,20.90
2018-08-12T16:15:47.835Z,21.48
2018-08-12T16:17:40.984Z,21.88
2018-08-12T16:18:40.995Z,21.58
2018-08-12T16:20:34.125Z,21.19
2018-08-12T16:21:34.150Z,21.00
2018-08-12T16:23:27.301Z,21.09
2018-08-12T16:24:27.311Z,21.58
2018-08-12T16:26:21.463Z,21.48
2018-08-12T16:27:21.495Z,21.68
2018-08-12T16:29:14.644Z,21.39
2018-08-12T16:30:14.654Z,21.58
2018-08-12T16:32:07.590Z,21.58
2018-08-12T16:33:07.614Z,21.97
2018-08-12T16:35:00.565Z,21.58
2018-08-12T16:36:00.572Z,21.10
2018-08-12T16:37:53.550Z,21.78
2018-08-12T16:38:53.549Z,21.10
2018-08-12T16:40:46.699Z,21.69
2018-08-12T16:41:46.675Z,21.59
2018-08-12T16:43:39.658Z,21.78
2018-08-12T16:44:39.633Z,22.17
2018-08-12T16:46:32.561Z,21.69
2018-08-12T16:47:32.592Z,21.49
2018-08-12T16:49:25.637Z,21.59
2018-08-12T16:50:25.547Z,21.20
2018-08-12T16:52:18.478Z,21.20
2018-08-12T16:53:18.506Z,20.72
2018-08-12T16:55:11.459Z,21.31
2018-08-12T16:56:11.477Z,20.61
2018-08-12T16:58:04.424Z,21.39
2018-08-12T16:59:04.429Z,21.20
2018-08-12T17:00:57.353Z,20.90
2018-08-12T17:01:57.395Z,20.12
2018-08-12T17:03:50.355Z,21.10
2018-08-12T17:04:50.341Z,20.90
2018-08-12T17:06:43.314Z,21.09
2018-08-12T17:07:43.299Z,21.68
2018-08-12T17:09:36.247Z,21.39
2018-08-12T17:10:36.252Z,21.39
2018-08-12T17:12:29.178Z,21.96
2018-08-12T17:13:29.207Z,21.67
2018-08-12T17:15:22.161Z,21.96
2018-08-12T17:16:22.168Z,22.25
2018-08-12T17:18:15.116Z,22.55
2018-08-12T17:19:15.120Z,21.57
2018-08-12T17:21:08.043Z,22.55
2018-08-12T17:22:08.076Z,22.25
2018-08-12T17:24:01.191Z,22.24
2018-08-12T17:25:01.228Z,22.73
2018-08-12T17:26:54.136Z,22.34
2018-08-12T17:27:54.157Z,22.83
2018-08-12T17:29:47.106Z,23.30
2018-08-12T17:30:47.112Z,23.11
2018-08-12T17:32:40.131Z,23.50
2018-08-12T17:33:40.068Z,23.50
2018-08-12T17:35:33.018Z,23.69
2018-08-12T17:36:33.021Z,23.40
2018-08-12T17:38:25.968Z,23.21
2018-08-12T17:39:25.975Z,23.69
2018-08-12T17:41:18.902Z,24.07
2018-08-12T17:42:18.931Z,23.97
2018-08-12T17:44:11.927Z,24.27
2018-08-12T17:45:12.046Z,24.76
2018-08-12T17:47:04.813Z,24.46
2018-08-12T17:48:04.868Z,23.88
2018-08-12T17:49:57.794Z,24.45
2018-08-12T17:50:57.798Z,24.55
2018-08-12T17:52:50.733Z,24.65
2018-08-12T17:53:50.779Z,24.84
2018-08-12T17:55:43.705Z,24.74
2018-08-12T17:56:43.713Z,24.84
2018-08-12T17:58:36.665Z,25.03
2018-08-12T17:59:36.686Z,25.23
2018-08-12T18:01:30.591Z,25.42
2018-08-12T18:02:30.622Z,25.23
2018-08-12T18:04:23.571Z,25.32
2018-08-12T18:05:23.573Z,25.13
2018-08-12T18:07:16.501Z,25.23
2018-08-12T18:10:09.525Z,25.23
2018-08-12T18:11:09.517Z,25.41
2018-08-12T18:13:02.438Z,25.90
2018-08-12T18:14:02.484Z,25.90
2018-08-12T18:15:55.417Z,26.29
2018-08-12T18:16:55.517Z,25.99
2018-08-12T18:18:48.387Z,26.29
2018-08-12T18:19:48.378Z,26.58
2018-08-12T18:21:41.300Z,27.26
2018-08-12T18:22:41.328Z,27.36
2018-08-12T18:24:34.270Z,27.44
2018-08-12T18:25:34.278Z,27.44
2018-08-12T18:27:27.226Z,28.03
2018-08-12T18:28:27.230Z,27.73
2018-08-12T18:30:20.181Z,28.69
2018-08-12T18:31:20.184Z,28.30
2018-08-12T18:33:13.190Z,29.26
2018-08-12T18:34:13.139Z,29.06